Time;durP1;ratioP1;P1;durP2;ratioP2;P2;SDS_P1;SDS_P2;PMS_P1;PMS_P2;Temp;Humidity;BMP_temperature;BMP_pressure;BME280_temperature;BME280_humidity;BME280_pressure;Samples;Min_cycle;Max_cycle;Signal;HPM_P1;HPM_P2
2022/03/27 00:01:43;;;;;;;2.45;2.20;;;18.50;50.20;;;;;;4969440;28;99001;-66
2022/03/27 00:04:09;;;;;;;2.17;1.98;;;18.50;50.20;;;;;;4969020;28;99783;-66
2022/03/27 00:06:35;;;;;;;2.65;2.00;;;18.40;50.20;;;;;;4968534;28;100018;-65
2022/03/27 00:09:01;;;;;;;2.97;2.45;;;18.50;50.20;;;;;;4968467;28;98994;-65
2022/03/27 00:11:28;;;;;;;2.42;1.90;;;18.40;50.20;;;;;;4967841;28;98689;-66
2022/03/27 00:13:57;;;;;;;2.60;1.98;;;18.40;50.10;;;;;;4968566;28;98490;-65
2022/03/27 00:16:23;;;;;;;2.53;2.00;;;18.40;50.20;;;;;;4967801;28;99603;-67
2022/03/27 00:18:50;;;;;;;2.38;1.90;;;18.40;50.20;;;;;;4967429;28;100157;-66
2022/03/27 00:21:15;;;;;;;2.50;1.92;;;18.40;50.20;;;;;;4967983;28;99851;-66
2022/03/27 00:23:43;;;;;;;2.72;2.08;;;18.40;50.10;;;;;;4968400;28;98606;-65
2022/03/27 00:26:09;;;;;;;2.35;2.10;;;18.40;50.10;;;;;;4967436;28;100845;-66
2022/03/27 00:28:35;;;;;;;2.60;2.10;;;18.40;50.10;;;;;;4966837;28;100371;-65
2022/03/27 00:31:01;;;;;;;1.80;1.70;;;18.40;50.20;;;;;;4968454;28;98934;-66
2022/03/27 00:33:28;;;;;;;2.50;2.25;;;18.40;50.20;;;;;;4966930;28;99135;-66
2022/03/27 00:35:55;;;;;;;2.92;2.05;;;18.40;50.10;;;;;;4968056;28;100256;-66
2022/03/27 00:38:21;;;;;;;2.17;1.88;;;18.40;50.10;;;;;;4967705;28;100134;-66
2022/03/27 00:40:49;;;;;;;2.35;1.90;;;18.40;50.10;;;;;;4968582;28;98651;-66
2022/03/27 00:43:14;;;;;;;2.80;2.30;;;18.30;50.00;;;;;;4967859;28;99375;-66
2022/03/27 00:45:40;;;;;;;2.60;1.90;;;18.40;50.10;;;;;;4966946;28;100936;-66
2022/03/27 00:48:14;;;;;;;2.55;2.00;;;18.40;50.10;;;;;;5134837;27;86871;-64
2022/03/27 00:50:41;;;;;;;2.00;1.80;;;18.40;50.10;;;;;;5111434;27;88003;-63
2022/03/27 00:53:08;;;;;;;2.83;2.05;;;18.40;50.00;;;;;;5112794;27;86799;-64
2022/03/27 00:55:33;;;;;;;2.35;2.00;;;18.40;50.10;;;;;;5110692;27;86664;-63
2022/03/27 00:58:01;;;;;;;2.05;1.85;;;18.40;50.00;;;;;;5112840;27;87161;-64
2022/03/27 01:01:01;;;;;;;2.30;2.10;;;18.30;50.00;;;;;;5111184;27;88144;-65
2022/03/27 01:03:27;;;;;;;2.15;1.85;;;18.40;50.00;;;;;;5092573;27;87101;-64
2022/03/27 01:05:57;;;;;;;1.92;1.70;;;18.30;50.00;;;;;;5110674;27;87053;-66
2022/03/27 01:11:16;;;;;;;2.20;1.90;;;18.30;50.00;;;;;;5111736;27;87301;-66
2022/03/27 01:13:49;;;;;;;2.28;1.85;;;18.30;50.00;;;;;;5112282;27;87753;-66
2022/03/27 01:16:17;;;;;;;2.47;2.00;;;18.30;50.00;;;;;;5112423;27;87051;-66
2022/03/27 01:18:43;;;;;;;2.13;1.92;;;18.30;50.00;;;;;;5103882;27;88384;-66
2022/03/27 01:21:09;;;;;;;2.25;1.70;;;18.30;50.00;;;;;;5090428;27;86996;-66
2022/03/27 01:23:35;;;;;;;1.98;1.77;;;18.30;50.00;;;;;;5091286;27;86730;-66
2022/03/27 01:26:01;;;;;;;2.30;1.73;;;18.30;49.90;;;;;;5089295;27;87095;-66
2022/03/27 01:28:26;;;;;;;1.77;1.67;;;18.30;50.90;;;;;;5091145;27;88267;-66
2022/03/27 01:30:52;;;;;;;1.65;1.55;;;18.30;50.00;;;;;;5090591;27;86947;-66
2022/03/27 01:33:17;;;;;;;2.35;1.60;;;18.30;49.90;;;;;;5090388;27;86888;-66
2022/03/27 01:35:43;;;;;;;1.92;1.80;;;18.30;50.00;;;;;;5089915;27;87110;-66
2022/03/27 01:38:08;;;;;;;2.38;1.98;;;18.30;50.00;;;;;;5090678;27;86516;-67
2022/03/27 01:40:34;;;;;;;2.00;1.80;;;18.30;51.00;;;;;;5090001;27;88228;-65
2022/03/27 01:42:59;;;;;;;2.00;1.67;;;18.30;50.00;;;;;;5090862;27;86732;-66
2022/03/27 01:45:27;;;;;;;1.50;1.33;;;18.30;50.00;;;;;;5089903;27;86820;-65
2022/03/27 01:47:53;;;;;;;1.90;1.70;;;18.30;49.90;;;;;;5089420;27;88204;-66
2022/03/27 01:50:19;;;;;;;1.92;1.63;;;18.30;49.90;;;;;;5089729;27;87605;-65
2022/03/27 01:52:45;;;;;;;1.67;1.58;;;18.20;49.90;;;;;;5089944;27;88069;-67
2022/03/27 01:55:16;;;;;;;1.88;1.60;;;18.30;50.00;;;;;;5090883;27;86630;-66
2022/03/27 01:57:43;;;;;;;1.90;1.70;;;18.20;49.90;;;;;;5086755;27;89342;-66
2022/03/27 02:00:11;;;;;;;2.42;1.65;;;18.30;50.90;;;;;;5076360;27;87018;-66
2022/03/27 02:02:36;;;;;;;1.70;1.60;;;18.20;49.90;;;;;;5075808;27;87679;-66
2022/03/27 02:05:04;;;;;;;2.55;2.03;;;18.20;49.80;;;;;;5077330;27;86589;-66
2022/03/27 02:07:42;;;;;;;1.83;1.63;;;18.20;49.90;;;;;;5076164;27;88697;-64
2022/03/27 02:10:09;;;;;;;1.77;1.65;;;18.20;49.90;;;;;;5076924;27;88163;-68
2022/03/27 02:12:35;;;;;;;2.05;1.85;;;18.20;49.90;;;;;;5058156;27;87690;-66
2022/03/27 02:15:06;;;;;;;1.67;1.55;;;18.20;49.90;;;;;;5076496;27;87158;-67
2022/03/27 02:17:32;;;;;;;2.13;1.70;;;18.20;49.80;;;;;;5075753;27;88053;-66
2022/03/27 02:19:59;;;;;;;2.05;1.85;;;18.20;49.90;;;;;;5075255;27;88025;-65
2022/03/27 02:22:24;;;;;;;1.77;1.40;;;18.20;49.90;;;;;;5076183;27;88280;-65
2022/03/27 02:24:50;;;;;;;1.70;1.60;;;18.20;49.80;;;;;;5077164;27;86600;-65
2022/03/27 02:27:16;;;;;;;1.85;1.55;;;18.20;49.90;;;;;;5075857;27;88600;-65
2022/03/27 02:29:41;;;;;;;1.60;1.50;;;18.20;49.80;;;;;;5076910;27;87130;-65
2022/03/27 02:32:08;;;;;;;1.60;1.50;;;18.20;49.90;;;;;;5077270;27;87310;-64
2022/03/27 02:34:33;;;;;;;2.53;1.85;;;18.20;49.90;;;;;;5076024;27;86735;-65
2022/03/27 02:36:59;;;;;;;1.75;1.65;;;18.20;49.80;;;;;;5076138;27;88124;-66
2022/03/27 02:39:25;;;;;;;2.17;1.98;;;18.20;49.90;;;;;;5075521;27;86877;-64
2022/03/27 02:41:50;;;;;;;1.80;1.70;;;18.20;49.90;;;;;;5075211;27;92513;-65
2022/03/27 02:44:16;;;;;;;1.65;1.52;;;18.10;49.80;;;;;;5076086;27;86680;-67
2022/03/27 02:46:41;;;;;;;1.70;1.60;;;18.10;49.80;;;;;;5075434;27;88556;-64
2022/03/27 02:49:07;;;;;;;1.80;1.60;;;18.10;49.80;;;;;;5076456;27;87984;-66
2022/03/27 02:51:32;;;;;;;1.65;1.50;;;18.10;49.70;;;;;;5075286;27;87770;-66
2022/03/27 02:53:58;;;;;;;2.08;1.55;;;18.10;49.70;;;;;;5075660;27;86734;-65
2022/03/27 02:56:24;;;;;;;1.98;1.65;;;18.10;49.80;;;;;;5074475;27;88512;-65
2022/03/27 02:58:49;;;;;;;1.60;1.50;;;18.10;49.80;;;;;;5074995;27;89196;-68
2022/03/27 03:01:15;;;;;;;1.73;1.63;;;18.10;49.80;;;;;;5075468;27;86798;-66
2022/03/27 03:03:42;;;;;;;1.50;1.40;;;18.10;49.80;;;;;;5075437;27;86691;-65
2022/03/27 03:06:09;;;;;;;2.20;1.60;;;18.10;49.70;;;;;;5056817;27;89375;-66
2022/03/27 03:08:38;;;;;;;1.70;1.60;;;18.10;49.70;;;;;;5075417;27;88130;-65
2022/03/27 03:11:04;;;;;;;1.60;1.50;;;18.10;49.70;;;;;;5074383;27;88471;-65
2022/03/27 03:13:29;;;;;;;1.63;1.52;;;18.10;49.80;;;;;;5075668;27;86940;-66
2022/03/27 04:19:01;;;;;;;1.60;1.45;;;17.90;49.70;;;;;;5236541;23;87796;-67
2022/03/27 04:21:27;;;;;;;1.75;1.58;;;17.90;49.70;;;;;;4959714;28;86554;-67
2022/03/27 04:23:53;;;;;;;1.58;1.48;;;17.90;50.60;;;;;;4956407;28;86661;-67
2022/03/27 04:26:18;;;;;;;1.50;1.40;;;17.90;49.60;;;;;;4954010;28;88558;-67
2022/03/27 04:28:45;;;;;;;1.70;1.60;;;17.90;49.60;;;;;;4955507;28;86590;-67
2022/03/27 04:31:11;;;;;;;2.20;1.60;;;17.90;49.50;;;;;;4955200;28;87689;-67
2022/03/27 04:33:36;;;;;;;1.42;1.33;;;17.90;49.50;;;;;;4954786;28;87311;-68
2022/03/27 04:36:06;;;;;;;1.50;1.40;;;17.90;49.60;;;;;;4954998;28;88092;-67
2022/03/27 04:38:32;;;;;;;1.50;1.40;;;17.90;49.50;;;;;;4954451;28;87088;-67
2022/03/27 04:40:57;;;;;;;1.60;1.48;;;17.90;49.90;;;;;;4954673;28;86989;-67
2022/03/27 04:43:23;;;;;;;2.13;1.55;;;17.90;50.50;;;;;;4954246;28;86920;-67
2022/03/27 04:45:49;;;;;;;1.77;1.45;;;17.90;49.50;;;;;;4954543;28;86976;-67
2022/03/27 04:48:15;;;;;;;1.70;1.45;;;17.90;49.50;;;;;;4954250;28;86572;-67
2022/03/27 04:50:40;;;;;;;1.95;1.40;;;17.80;49.40;;;;;;4954589;28;87151;-67
2022/03/27 04:53:06;;;;;;;1.95;1.30;;;17.80;49.40;;;;;;4954418;28;88166;-67
2022/03/27 04:55:32;;;;;;;1.40;1.30;;;17.80;49.30;;;;;;4954588;28;86704;-67
2022/03/27 04:57:58;;;;;;;2.17;1.20;;;17.80;49.40;;;;;;4954754;28;86583;-67
2022/03/27 05:00:24;;;;;;;1.50;1.30;;;17.80;49.40;;;;;;4954221;28;89645;-68
2022/03/27 05:02:49;;;;;;;1.42;1.33;;;17.80;49.30;;;;;;4954864;28;89518;-67
2022/03/27 05:05:15;;;;;;;1.25;1.05;;;17.80;49.30;;;;;;4954791;28;88213;-67
2022/03/27 05:07:43;;;;;;;1.30;1.15;;;17.80;49.20;;;;;;4954078;28;87994;-67
2022/03/27 05:10:10;;;;;;;1.42;1.33;;;17.80;49.20;;;;;;4936081;28;89585;-67
2022/03/27 05:12:36;;;;;;;1.35;1.25;;;17.80;49.20;;;;;;4953617;28;89197;-67
2022/03/27 05:15:02;;;;;;;2.03;1.30;;;17.80;49.20;;;;;;4952870;28;88251;-67
2022/03/27 05:17:27;;;;;;;1.42;1.20;;;17.80;49.20;;;;;;4954085;28;88172;-67
2022/03/27 05:19:53;;;;;;;2.40;1.38;;;17.80;49.20;;;;;;4953306;28;89225;-67
2022/03/27 05:22:18;;;;;;;1.30;1.20;;;17.80;49.20;;;;;;4953294;28;97424;-67
2022/03/27 05:24:45;;;;;;;1.45;1.33;;;17.80;49.20;;;;;;4953608;28;88008;-67
2022/03/27 05:27:12;;;;;;;2.42;1.23;;;17.70;49.10;;;;;;4953527;28;87435;-67
2022/03/27 05:29:38;;;;;;;1.38;1.20;;;17.70;49.10;;;;;;4953890;28;90250;-67
2022/03/27 05:32:04;;;;;;;1.67;1.40;;;17.80;49.10;;;;;;4953716;28;88344;-67
2022/03/27 05:34:30;;;;;;;1.60;1.30;;;17.80;49.20;;;;;;4955452;28;88796;-67
2022/03/27 05:36:56;;;;;;;1.90;1.20;;;17.70;49.10;;;;;;4956690;28;88494;-67
2022/03/27 05:39:21;;;;;;;2.22;1.42;;;17.70;49.10;;;;;;4956368;28;89932;-67
2022/03/27 05:41:47;;;;;;;6.53;1.80;;;17.70;49.10;;;;;;4956370;28;89267;-68
2022/03/27 05:44:13;;;;;;;2.28;1.90;;;17.70;49.40;;;;;;4957028;28;88659;-67
2022/03/27 05:46:38;;;;;;;1.55;1.33;;;17.70;49.30;;;;;;4958076;28;88115;-67
2022/03/27 05:49:04;;;;;;;3.63;1.40;;;17.70;49.40;;;;;;4957248;28;88507;-67
2022/03/27 05:51:29;;;;;;;1.92;1.50;;;17.80;49.40;;;;;;4958145;28;88874;-67
2022/03/27 05:53:55;;;;;;;2.17;1.40;;;17.80;49.40;;;;;;4957297;28;88189;-67
2022/03/27 05:56:21;;;;;;;2.45;1.48;;;17.80;49.20;;;;;;4957418;28;88709;-68
2022/03/27 05:58:49;;;;;;;3.03;1.67;;;17.80;49.30;;;;;;4956308;28;90437;-68
2022/03/27 06:01:15;;;;;;;3.03;1.50;;;17.80;49.40;;;;;;4960348;28;90262;-67
2022/03/27 06:03:41;;;;;;;2.28;1.40;;;17.80;49.60;;;;;;4959773;28;89847;-67
2022/03/27 06:06:07;;;;;;;1.58;1.38;;;17.90;49.90;;;;;;4958161;28;88075;-67
2022/03/27 06:08:33;;;;;;;1.90;1.55;;;17.90;50.00;;;;;;4956230;28;88547;-67
2022/03/27 06:10:59;;;;;;;2.00;1.40;;;17.90;50.00;;;;;;4956849;28;88778;-67
2022/03/27 06:13:24;;;;;;;1.60;1.23;;;18.00;50.10;;;;;;4957093;28;88054;-67
2022/03/27 06:15:51;;;;;;;3.83;1.52;;;18.00;50.00;;;;;;4957140;28;87275;-68
2022/03/27 06:18:16;;;;;;;1.90;1.40;;;18.10;50.00;;;;;;4955445;28;89680;-66
2022/03/27 06:20:43;;;;;;;2.90;1.35;;;18.20;49.50;;;;;;4956006;28;88397;-65
2022/03/27 06:23:08;;;;;;;1.63;1.25;;;18.20;49.00;;;;;;4954403;28;88877;-66
2022/03/27 06:25:35;;;;;;;2.00;1.40;;;18.30;48.90;;;;;;4956168;28;88084;-66
2022/03/27 06:28:02;;;;;;;1.83;1.25;;;18.30;48.90;;;;;;4956534;28;89210;-67
2022/03/27 06:30:29;;;;;;;1.90;1.30;;;18.40;48.50;;;;;;4955313;28;88231;-68
2022/03/27 07:58:09;;;;;;;8.02;1.85;;;19.10;49.00;;;;;;5747266;23;90884;-68
2022/03/27 08:00:35;;;;;;;3.47;1.70;;;19.10;49.10;;;;;;4854799;29;88541;-69
2022/03/27 08:03:03;;;;;;;6.53;1.90;;;19.00;49.20;;;;;;4858647;29;87310;-69
2022/03/27 08:05:29;;;;;;;8.40;1.98;;;19.00;49.20;;;;;;4857770;29;89110;-69
2022/03/27 08:07:55;;;;;;;5.72;1.70;;;19.00;49.30;;;;;;4857512;29;88632;-71
2022/03/27 08:10:23;;;;;;;7.28;1.90;;;19.00;49.30;;;;;;4857680;29;88758;-68
2022/03/27 08:12:48;;;;;;;4.90;1.90;;;18.90;49.20;;;;;;4858049;29;88616;-69
2022/03/27 08:15:15;;;;;;;7.85;1.85;;;18.90;49.30;;;;;;4856661;29;89751;-69
2022/03/27 08:17:41;;;;;;;5.47;1.60;;;18.90;49.40;;;;;;4857528;29;88571;-68
2022/03/27 08:20:07;;;;;;;7.05;1.95;;;18.90;49.40;;;;;;4858231;29;88582;-69
2022/03/27 08:22:33;;;;;;;8.93;2.47;;;18.90;49.40;;;;;;4857284;29;88235;-69
2022/03/27 08:24:59;;;;;;;7.43;1.98;;;18.90;49.40;;;;;;4856624;29;88734;-68
2022/03/27 08:27:25;;;;;;;4.78;1.98;;;18.80;49.40;;;;;;4857017;29;89521;-69
2022/03/27 08:29:51;;;;;;;4.20;1.80;;;18.80;49.30;;;;;;4858038;29;88034;-69
2022/03/27 08:32:19;;;;;;;6.57;1.83;;;18.80;49.40;;;;;;4856913;29;88415;-69
2022/03/27 08:34:47;;;;;;;6.28;1.92;;;18.90;49.30;;;;;;4857597;29;89453;-69
2022/03/27 08:37:16;;;;;;;4.55;1.80;;;18.90;49.30;;;;;;4857371;29;89543;-69
2022/03/27 08:39:44;;;;;;;5.85;2.08;;;18.90;49.30;;;;;;4857718;29;88215;-69
2022/03/27 08:42:11;;;;;;;5.55;1.67;;;18.90;49.20;;;;;;4858009;29;88172;-69
2022/03/27 08:44:37;;;;;;;4.75;1.85;;;18.90;49.20;;;;;;4857056;29;89683;-68
2022/03/27 08:47:19;;;;;;;4.60;1.83;;;18.90;49.10;;;;;;4857719;29;88874;-69
2022/03/27 08:50:00;;;;;;;4.65;1.80;;;18.90;49.00;;;;;;4858514;29;88273;-69
2022/03/27 08:52:49;;;;;;;4.85;1.60;;;18.90;49.00;;;;;;4857763;29;87489;-68
2022/03/27 08:55:22;;;;;;;4.88;1.70;;;19.00;49.00;;;;;;4858127;29;88876;-69
2022/03/27 08:57:55;;;;;;;5.63;1.77;;;19.00;49.00;;;;;;4861773;28;88499;-69
2022/03/27 09:00:23;;;;;;;4.65;1.67;;;19.00;48.90;;;;;;4875155;28;89213;-72
2022/03/27 09:02:50;;;;;;;6.60;1.95;;;19.00;48.90;;;;;;4876326;28;88545;-69
2022/03/27 09:05:16;;;;;;;5.60;1.92;;;19.00;48.80;;;;;;4875719;28;88734;-69
2022/03/27 09:07:41;;;;;;;5.65;1.98;;;19.00;48.80;;;;;;4875374;28;90037;-69
2022/03/27 09:10:09;;;;;;;4.72;1.85;;;19.00;48.80;;;;;;4879204;28;88702;-69
2022/03/27 09:12:35;;;;;;;3.95;1.58;;;19.00;48.70;;;;;;4879203;28;88748;-68
2022/03/27 09:15:04;;;;;;;5.93;1.60;;;19.00;48.70;;;;;;4879274;28;89615;-70
2022/03/27 09:17:30;;;;;;;5.68;2.00;;;19.00;48.70;;;;;;4879762;28;88448;-68
2022/03/27 09:19:56;;;;;;;3.33;1.50;;;19.00;48.70;;;;;;4879288;28;88090;-68
2022/03/27 09:22:29;;;;;;;5.45;1.55;;;19.00;48.70;;;;;;4861638;28;89403;-69
2022/03/27 09:25:03;;;;;;;3.65;1.67;;;19.00;48.70;;;;;;4878806;28;90664;-68
2022/03/27 09:27:34;;;;;;;3.83;1.60;;;19.00;48.60;;;;;;4878539;28;91916;-69
2022/03/27 09:30:09;;;;;;;5.35;1.80;;;19.00;48.50;;;;;;4878693;28;88052;-67
2022/03/27 09:32:40;;;;;;;4.32;1.75;;;19.00;48.50;;;;;;4879201;28;88460;-69
2022/03/27 09:35:14;;;;;;;3.83;1.60;;;19.00;48.50;;;;;;4878655;28;89808;-68
2022/03/27 09:37:42;;;;;;;4.80;1.85;;;19.00;48.50;;;;;;4880021;28;88819;-69
2022/03/27 09:40:12;;;;;;;5.72;2.17;;;19.00;48.40;;;;;;4879200;28;88167;-68
2022/03/27 09:42:40;;;;;;;4.60;2.20;;;19.00;48.40;;;;;;4877959;28;87397;-69
2022/03/27 09:45:23;;;;;;;5.45;1.92;;;19.00;48.40;;;;;;4879187;28;89868;-69
2022/03/27 09:47:51;;;;;;;7.22;2.00;;;19.00;48.20;;;;;;4879788;28;88898;-68
2022/03/27 09:50:37;;;;;;;8.70;2.83;;;19.00;48.20;;;;;;4879041;28;88784;-69
2022/03/27 09:53:30;;;;;;;8.68;2.35;;;19.00;48.10;;;;;;4878127;28;88428;-69
2022/03/27 09:55:59;;;;;;;6.00;2.10;;;19.00;48.10;;;;;;4879031;28;89495;-69
2022/03/27 09:58:42;;;;;;;6.95;2.10;;;19.00;48.10;;;;;;4878336;28;88319;-70
2022/03/27 10:01:15;;;;;;;5.70;2.15;;;19.00;48.00;;;;;;4878397;28;88490;-68
2022/03/27 10:03:59;;;;;;;7.53;2.75;;;19.00;48.00;;;;;;4879085;28;88182;-68
2022/03/27 10:06:34;;;;;;;4.63;2.13;;;19.00;48.00;;;;;;4879180;28;88036;-68
2022/03/27 10:09:01;;;;;;;7.55;2.58;;;19.00;48.00;;;;;;4878760;28;88863;-68
2022/03/27 10:11:29;;;;;;;6.57;2.55;;;19.00;48.00;;;;;;4879170;28;88223;-68
2022/03/27 10:13:55;;;;;;;5.35;2.15;;;19.00;47.90;;;;;;4878638;28;88132;-68
2022/03/27 10:16:28;;;;;;;8.02;2.65;;;19.00;47.90;;;;;;4879492;28;90243;-67
2022/03/27 10:18:58;;;;;;;11.80;2.20;;;19.00;48.90;;;;;;4879242;28;90223;-69
2022/03/27 10:21:26;;;;;;;9.05;2.35;;;19.00;48.20;;;;;;4879082;28;88623;-69
2022/03/27 10:24:08;;;;;;;8.52;2.13;;;19.10;48.30;;;;;;4878827;28;88144;-68
2022/03/27 10:26:34;;;;;;;10.32;2.50;;;19.10;48.50;;;;;;4878386;28;88178;-69
2022/03/27 10:29:05;;;;;;;7.00;2.45;;;19.10;48.60;;;;;;4879339;28;89537;-68
2022/03/27 10:31:31;;;;;;;7.82;2.45;;;19.10;48.60;;;;;;4878984;28;88137;-67
2022/03/27 10:34:00;;;;;;;11.07;2.60;;;19.10;48.70;;;;;;4879770;28;87874;-66
2022/03/27 10:36:49;;;;;;;14.05;2.95;;;19.10;49.00;;;;;;4877444;28;88109;-66
2022/03/27 10:39:40;;;;;;;14.73;3.10;;;19.10;49.40;;;;;;4878287;28;89850;-66
2022/03/27 10:42:23;;;;;;;9.80;2.53;;;19.10;49.70;;;;;;4877468;28;88877;-67
2022/03/27 10:45:00;;;;;;;13.70;2.95;;;19.10;49.80;;;;;;4878135;28;88114;-66
2022/03/27 10:47:30;;;;;;;13.43;3.17;;;19.20;49.80;;;;;;4878616;28;88814;-67
2022/03/27 10:50:01;;;;;;;11.80;2.53;;;19.20;50.80;;;;;;4878205;28;89577;-66
2022/03/27 10:52:43;;;;;;;7.07;2.65;;;19.20;49.90;;;;;;4878262;28;88750;-66
2022/03/27 10:55:11;;;;;;;11.00;3.00;;;19.20;49.80;;;;;;4877760;28;88128;-67
2022/03/27 10:57:42;;;;;;;9.88;2.55;;;19.20;49.70;;;;;;4877941;28;89958;-67
2022/03/27 11:00:10;;;;;;;13.70;2.63;;;19.20;49.40;;;;;;4878693;28;87316;-71
2022/03/27 11:02:50;;;;;;;18.83;3.55;;;19.20;49.30;;;;;;4878745;28;88544;-67
2022/03/27 11:05:31;;;;;;;23.05;3.10;;;19.20;50.50;;;;;;4878861;28;88498;-67
2022/03/27 11:08:18;;;;;;;21.75;3.25;;;19.20;50.50;;;;;;4876985;28;90516;-66
2022/03/27 11:10:43;;;;;;;17.10;3.05;;;19.20;51.00;;;;;;4877964;28;89100;-68
2022/03/27 11:13:36;;;;;;;22.63;3.60;;;19.20;51.20;;;;;;4877176;28;88191;-68
2022/03/27 11:16:12;;;;;;;23.40;3.50;;;19.30;51.50;;;;;;4867640;28;88231;-67
2022/03/27 11:18:41;;;;;;;16.42;3.20;;;19.30;51.60;;;;;;4877678;28;89355;-67
2022/03/27 11:21:10;;;;;;;20.10;3.60;;;19.30;51.60;;;;;;4877830;28;88363;-67
2022/03/27 11:23:37;;;;;;;17.17;3.28;;;19.30;51.70;;;;;;4877374;28;88498;-67
2022/03/27 11:26:05;;;;;;;14.48;3.10;;;19.30;51.90;;;;;;4878789;28;87807;-67
2022/03/27 11:28:45;;;;;;;17.90;3.70;;;19.30;51.90;;;;;;4878680;28;89236;-68
2022/03/27 11:31:11;;;;;;;14.43;2.88;;;19.30;52.00;;;;;;4877004;28;88281;-67
2022/03/27 11:33:37;;;;;;;14.60;3.10;;;19.30;52.10;;;;;;4878333;28;88973;-67
2022/03/27 11:36:09;;;;;;;10.88;2.72;;;19.30;53.10;;;;;;4878459;28;88380;-67
2022/03/27 11:38:36;;;;;;;15.85;3.08;;;19.30;52.20;;;;;;4877641;28;88121;-66
2022/03/27 11:41:43;;;;;;;17.05;3.20;;;19.30;52.20;;;;;;4877246;28;88624;-66
2022/03/27 11:44:24;;;;;;;23.85;3.67;;;19.30;52.30;;;;;;4877400;28;88181;-67
2022/03/27 11:46:51;;;;;;;15.77;3.58;;;19.30;52.40;;;;;;4876864;28;88078;-66
2022/03/27 11:49:17;;;;;;;15.50;3.00;;;19.30;52.40;;;;;;4876773;28;89673;-67
2022/03/27 11:51:43;;;;;;;18.63;3.35;;;19.30;52.10;;;;;;4876664;28;89208;-68
2022/03/27 11:54:19;;;;;;;18.40;3.92;;;19.30;52.20;;;;;;4877272;28;87994;-66
2022/03/27 11:56:56;;;;;;;14.52;3.75;;;19.30;51.70;;;;;;4877308;28;88050;-67
2022/03/27 11:59:26;;;;;;;16.05;3.33;;;19.30;51.60;;;;;;4875801;28;88807;-67
2022/03/27 12:01:57;;;;;;;16.38;3.55;;;19.30;51.10;;;;;;4876611;28;89131;-67
2022/03/27 12:04:25;;;;;;;15.13;3.65;;;19.30;50.90;;;;;;4875881;28;88488;-67
2022/03/27 12:06:58;;;;;;;14.23;3.70;;;19.20;50.60;;;;;;4877223;28;88568;-71
2022/03/27 12:09:29;;;;;;;17.92;3.85;;;19.20;50.50;;;;;;4878328;28;88991;-66
2022/03/27 12:12:10;;;;;;;20.02;3.92;;;19.20;50.60;;;;;;4881047;28;88259;-67
2022/03/27 12:14:55;;;;;;;24.35;3.88;;;19.20;50.80;;;;;;4878119;28;88663;-66
2022/03/27 12:17:22;;;;;;;20.13;3.80;;;19.20;50.70;;;;;;4876918;28;87543;-66
2022/03/27 12:20:01;;;;;;;20.05;3.38;;;19.20;50.80;;;;;;4868411;28;88615;-66
2022/03/27 12:22:56;;;;;;;19.65;3.55;;;19.20;50.80;;;;;;4876581;28;88336;-67
2022/03/27 12:25:26;;;;;;;17.52;3.50;;;19.20;50.70;;;;;;4859504;28;89171;-68
2022/03/27 12:30:53;;;;;;;24.77;3.55;;;19.20;50.60;;;;;;4877312;28;88474;-69
2022/03/27 12:33:27;;;;;;;18.20;3.70;;;19.20;50.60;;;;;;4876180;28;90027;-69
2022/03/27 12:36:09;;;;;;;18.08;3.40;;;19.20;50.20;;;;;;4876785;28;88466;-68
2022/03/27 12:38:34;;;;;;;14.52;3.00;;;19.20;50.10;;;;;;4875643;28;88688;-69
2022/03/27 12:41:02;;;;;;;11.65;2.88;;;19.20;50.10;;;;;;4877443;28;88590;-69
2022/03/27 12:43:28;;;;;;;13.35;3.15;;;19.10;50.90;;;;;;4875911;28;90307;-69
2022/03/27 12:45:55;;;;;;;11.18;3.22;;;19.20;49.90;;;;;;4875493;28;88420;-66
2022/03/27 12:48:29;;;;;;;16.20;3.20;;;19.20;50.00;;;;;;4876809;28;88117;-68
2022/03/27 12:50:57;;;;;;;11.35;3.08;;;19.20;49.90;;;;;;4876496;28;90562;-69
2022/03/27 12:53:22;;;;;;;16.55;3.72;;;19.20;49.80;;;;;;4875775;28;90262;-68
2022/03/27 12:55:51;;;;;;;11.95;3.35;;;19.20;49.80;;;;;;4876220;28;88134;-68
2022/03/27 12:58:18;;;;;;;12.68;2.83;;;19.20;49.70;;;;;;4875391;28;88677;-66
2022/03/27 13:00:45;;;;;;;14.38;3.00;;;19.20;49.70;;;;;;4877072;28;88610;-66
2022/03/27 13:03:24;;;;;;;14.43;3.00;;;19.10;49.50;;;;;;4876444;28;88675;-66
2022/03/27 13:05:58;;;;;;;13.02;3.03;;;19.20;49.50;;;;;;4876897;28;88371;-66
2022/03/27 13:08:42;;;;;;;12.90;3.25;;;19.20;49.50;;;;;;4875944;28;88647;-66
2022/03/27 13:11:11;;;;;;;7.93;2.65;;;19.20;49.40;;;;;;4876254;28;89953;-66
2022/03/27 13:13:41;;;;;;;12.80;2.80;;;19.20;49.50;;;;;;4876850;28;88457;-66
2022/03/27 13:16:24;;;;;;;10.68;3.17;;;19.20;49.40;;;;;;4876274;28;89209;-66
2022/03/27 13:19:02;;;;;;;8.27;2.78;;;19.20;49.30;;;;;;4877162;28;88539;-66
2022/03/27 13:21:48;;;;;;;9.57;2.55;;;19.20;49.30;;;;;;4877067;28;90379;-66
2022/03/27 13:24:17;;;;;;;8.88;2.25;;;19.20;49.30;;;;;;4865574;28;88372;-66
2022/03/27 13:26:44;;;;;;;11.82;2.63;;;19.20;49.20;;;;;;4875673;28;89647;-66
2022/03/27 13:29:11;;;;;;;14.57;3.17;;;19.20;49.20;;;;;;4876925;28;88462;-66
2022/03/27 13:31:37;;;;;;;11.70;2.63;;;19.20;49.10;;;;;;4877280;28;89113;-68
2022/03/27 13:34:07;;;;;;;10.05;3.00;;;19.20;49.10;;;;;;4877132;28;88595;-66
2022/03/27 13:36:34;;;;;;;10.23;2.97;;;19.20;49.00;;;;;;4876386;28;89227;-66
2022/03/27 13:39:02;;;;;;;9.30;2.72;;;19.20;48.90;;;;;;4878269;28;88448;-68
2022/03/27 13:44:15;;;;;;;13.43;2.65;;;19.30;48.80;;;;;;4875944;28;89218;-69
2022/03/27 13:46:42;;;;;;;9.73;2.40;;;19.30;48.80;;;;;;4877116;28;89427;-66
2022/03/27 13:49:08;;;;;;;9.30;2.38;;;19.30;48.80;;;;;;4859849;28;88351;-67
2022/03/27 13:51:35;;;;;;;11.68;3.13;;;19.30;48.70;;;;;;4876241;28;89954;-66
2022/03/27 13:54:01;;;;;;;8.43;2.60;;;19.30;48.80;;;;;;4877651;28;90394;-66
2022/03/27 13:56:26;;;;;;;8.65;2.70;;;19.30;48.70;;;;;;4881995;28;88546;-66
2022/03/27 13:58:52;;;;;;;9.38;2.72;;;19.30;48.70;;;;;;4881046;28;87435;-65
2022/03/27 14:01:18;;;;;;;13.48;3.30;;;19.30;48.80;;;;;;4879661;28;90131;-66
2022/03/27 14:03:43;;;;;;;13.45;3.20;;;19.30;48.90;;;;;;4880013;28;88875;-66
2022/03/27 14:06:11;;;;;;;14.63;2.97;;;19.30;49.00;;;;;;4878513;28;89008;-67
2022/03/27 14:08:38;;;;;;;16.05;2.92;;;19.40;49.40;;;;;;4879334;28;88554;-67
2022/03/27 14:11:04;;;;;;;17.45;3.47;;;19.40;49.40;;;;;;4880538;28;89665;-65
2022/03/27 14:13:30;;;;;;;11.68;3.15;;;19.50;49.50;;;;;;4879252;28;88421;-65
2022/03/27 14:15:56;;;;;;;21.15;3.40;;;19.50;49.50;;;;;;4880899;28;88534;-65
2022/03/27 14:18:22;;;;;;;18.73;3.00;;;19.60;49.50;;;;;;4879267;28;88687;-66
2022/03/27 14:20:48;;;;;;;12.98;2.67;;;19.60;49.60;;;;;;4880536;28;92138;-67
2022/03/27 14:23:13;;;;;;;18.38;3.08;;;19.60;50.50;;;;;;4879762;28;89040;-67
2022/03/27 14:25:39;;;;;;;13.85;3.00;;;19.60;49.40;;;;;;4879412;28;88557;-67
2022/03/27 14:28:05;;;;;;;15.50;3.72;;;19.60;49.40;;;;;;4878801;28;88370;-66
2022/03/27 14:30:31;;;;;;;16.00;2.80;;;19.70;49.60;;;;;;4878728;28;91728;-67
2022/03/27 14:32:57;;;;;;;19.60;3.22;;;19.70;49.40;;;;;;4878650;28;90507;-67
2022/03/27 14:35:23;;;;;;;13.23;3.20;;;19.70;49.50;;;;;;4878579;28;88533;-66
2022/03/27 14:37:49;;;;;;;20.17;3.17;;;19.70;50.60;;;;;;4877592;28;88489;-67
2022/03/27 14:40:15;;;;;;;14.65;3.00;;;19.70;49.70;;;;;;4879024;28;88714;-66
2022/03/27 14:42:41;;;;;;;12.05;2.95;;;19.70;49.80;;;;;;4878371;28;89619;-66
2022/03/27 14:45:08;;;;;;;13.27;2.78;;;19.80;49.90;;;;;;4877976;28;89396;-68
2022/03/27 14:47:35;;;;;;;15.43;2.80;;;19.80;49.80;;;;;;4879549;28;87473;-69
2022/03/27 14:50:03;;;;;;;26.52;4.10;;;19.80;49.10;;;;;;4860674;28;90019;-67
2022/03/27 14:52:29;;;;;;;27.02;3.88;;;19.80;48.70;;;;;;4894980;28;88562;-67
2022/03/27 14:57:38;;;;;;;15.23;2.95;;;19.80;48.90;;;;;;4898916;28;88420;-69
2022/03/27 15:00:06;;;;;;;18.00;3.33;;;19.80;48.70;;;;;;4898355;28;89666;-67
2022/03/27 15:02:31;;;;;;;19.45;3.20;;;19.80;49.00;;;;;;4898610;28;89868;-67
2022/03/27 15:04:57;;;;;;;142.65;54.50;;;19.80;49.20;;;;;;4898084;28;88408;-67
2022/03/27 15:07:22;;;;;;;268.60;106.95;;;19.90;49.40;;;;;;4898057;28;89011;-67
2022/03/27 15:09:48;;;;;;;301.50;119.65;;;19.90;49.60;;;;;;4896009;28;99376;-67
2022/03/27 15:12:14;;;;;;;303.58;119.55;;;19.90;49.70;;;;;;4896357;28;91291;-67
2022/03/27 15:14:42;;;;;;;310.20;124.95;;;19.90;49.80;;;;;;4896098;28;91445;-68
2022/03/27 15:17:08;;;;;;;311.70;128.57;;;20.00;50.10;;;;;;4861238;28;93082;-66
2022/03/27 15:19:37;;;;;;;315.02;129.93;;;20.00;50.20;;;;;;4876870;28;91333;-68
2022/03/27 15:22:06;;;;;;;309.00;128.82;;;20.00;49.90;;;;;;4877297;28;93452;-67
2022/03/27 15:24:35;;;;;;;302.73;129.50;;;20.00;49.80;;;;;;4877047;28;91103;-67
2022/03/27 15:27:03;;;;;;;305.13;127.05;;;20.10;50.40;;;;;;4877704;28;91208;-68
2022/03/27 15:29:30;;;;;;;294.50;127.93;;;20.10;50.70;;;;;;4877573;28;91165;-67
2022/03/27 15:31:57;;;;;;;295.75;126.88;;;20.20;51.50;;;;;;4877629;28;92191;-67